createdAt,value
2023-01-23T00:01:47.823Z,95296.41
2023-01-23T00:04:18.767Z,95292.34
2023-01-23T00:06:49.598Z,95297.59
2023-01-23T00:09:18.932Z,95282.91
2023-01-23T00:11:47.794Z,95285.91
2023-01-23T00:14:18.027Z,95295.09
2023-01-23T00:16:47.051Z,95287.94
2023-01-23T00:19:17.441Z,95292.53
2023-01-23T00:21:46.884Z,95291.78
2023-01-23T00:24:16.132Z,95293.34
2023-01-23T00:26:45.630Z,95296.03
2023-01-23T00:29:15.807Z,95288.84
2023-01-23T00:31:45.605Z,95291.31
2023-01-23T00:34:17.072Z,95293.97
2023-01-23T00:36:47.621Z,95297.59
2023-01-23T00:39:19.790Z,95296.41
2023-01-23T00:41:50.513Z,95294.13
2023-01-23T00:44:20.479Z,95288.25
2023-01-23T00:46:49.791Z,95293.06
2023-01-23T00:49:19.897Z,95296.94
2023-01-23T00:51:51.252Z,95292.09
2023-01-23T00:54:21.870Z,95312.78
2023-01-23T00:56:50.880Z,95300.63
2023-01-23T00:59:20.086Z,95304.84
2023-01-23T01:01:49.306Z,95306.13
2023-01-23T01:04:18.459Z,95308.25
2023-01-23T01:06:47.479Z,95300.75
2023-01-23T01:09:19.960Z,95287.34
2023-01-23T01:11:49.769Z,95287.34
2023-01-23T01:14:19.052Z,95289.56
2023-01-23T01:16:49.693Z,95299.47
2023-01-23T01:19:20.182Z,95311.00
2023-01-23T01:21:50.875Z,95315.09
2023-01-23T01:24:21.368Z,95313.44
2023-01-23T01:26:50.980Z,95314.66
2023-01-23T01:29:20.067Z,95321.09
2023-01-23T01:31:49.351Z,95314.19
2023-01-23T01:34:18.509Z,95309.81
2023-01-23T01:36:47.654Z,95310.72
2023-01-23T01:39:16.679Z,95311.44
2023-01-23T01:41:47.852Z,95309.78
2023-01-23T01:44:20.000Z,95313.22
2023-01-23T01:46:49.611Z,95316.00
2023-01-23T01:49:21.901Z,95322.31
2023-01-23T01:51:56.089Z,95331.44
2023-01-23T01:54:29.821Z,95322.31
2023-01-23T01:57:03.715Z,95326.78
2023-01-23T01:59:38.466Z,95326.84
2023-01-23T02:02:12.795Z,95324.41
2023-01-23T02:04:47.405Z,95325.41
2023-01-23T02:07:23.432Z,95327.06
2023-01-23T02:09:54.569Z,95322.16
2023-01-23T02:12:27.081Z,95317.47
2023-01-23T02:14:56.610Z,95319.47
2023-01-23T02:17:25.818Z,95322.91
2023-01-23T02:20:01.012Z,95321.28
2023-01-23T02:22:42.126Z,95320.75
2023-01-23T02:25:24.197Z,95316.72
2023-01-23T02:27:54.939Z,95323.41
2023-01-23T02:30:24.969Z,95328.84
2023-01-23T02:32:56.424Z,95332.41
2023-01-23T02:35:31.892Z,95325.72
2023-01-23T02:38:09.306Z,95331.09
2023-01-23T02:40:41.017Z,95334.34
2023-01-23T02:43:17.308Z,95323.41
2023-01-23T02:45:55.448Z,95322.75
2023-01-23T02:48:26.641Z,95321.03
2023-01-23T02:50:55.673Z,95323.56
2023-01-23T02:53:25.923Z,95319.94
2023-01-23T02:55:56.765Z,95319.94
2023-01-23T02:58:44.777Z,95326.94
2023-01-23T03:01:14.061Z,95329.09
2023-01-23T03:03:43.537Z,95332.41
2023-01-23T03:06:13.226Z,95337.03
2023-01-23T03:08:48.264Z,95339.13
2023-01-23T03:11:19.816Z,95333.09
2023-01-23T03:13:51.781Z,95327.66
2023-01-23T03:16:20.944Z,95325.59
2023-01-23T03:18:54.692Z,95315.03
2023-01-23T03:21:25.402Z,95312.81
2023-01-23T03:23:54.596Z,95315.06
2023-01-23T03:26:24.730Z,95316.84
2023-01-23T03:29:13.425Z,95318.47
2023-01-23T03:31:44.792Z,95309.66
2023-01-23T03:34:18.263Z,95302.41
2023-01-23T03:36:47.639Z,95314.13
2023-01-23T03:39:34.136Z,95311.91
2023-01-23T03:42:03.990Z,95311.91
2023-01-23T03:44:35.411Z,95309.25
2023-01-23T03:47:05.549Z,95309.25
2023-01-23T03:49:35.407Z,95319.00
2023-01-23T03:52:04.811Z,95313.53
2023-01-23T03:54:34.865Z,95318.81
2023-01-23T03:57:07.377Z,95312.56
2023-01-23T04:00:05.404Z,95334.00
2023-01-23T04:02:47.187Z,95326.50
2023-01-23T04:05:17.335Z,95339.06
2023-01-23T04:07:46.447Z,95335.44
2023-01-23T04:10:16.602Z,95342.19
2023-01-23T04:12:50.759Z,95346.38
2023-01-23T04:15:22.820Z,95348.06
2023-01-23T04:17:54.530Z,95342.19
2023-01-23T04:20:27.574Z,95342.72
2023-01-23T04:22:58.992Z,95346.38
2023-01-23T04:25:33.731Z,95355.16
2023-01-23T04:28:07.453Z,95358.63
2023-01-23T04:30:38.062Z,95363.28
2023-01-23T04:33:15.138Z,95363.91
2023-01-23T04:35:51.926Z,95357.91
2023-01-23T04:38:21.992Z,95356.88
2023-01-23T04:40:52.091Z,95359.28
2023-01-23T04:43:21.572Z,95350.16
2023-01-23T04:45:56.249Z,95352.00
2023-01-23T04:48:43.875Z,95355.66
2023-01-23T04:51:15.658Z,95354.00
2023-01-23T04:53:45.135Z,95358.06
2023-01-23T04:56:14.152Z,95364.56
2023-01-23T04:58:43.356Z,95359.25
2023-01-23T05:01:23.492Z,95366.53
2023-01-23T05:03:58.273Z,95349.75
2023-01-23T05:06:27.526Z,95363.94
2023-01-23T05:08:59.039Z,95361.75
2023-01-23T05:11:40.428Z,95364.75
2023-01-23T05:14:12.471Z,95369.84
2023-01-23T05:16:45.209Z,95363.16
2023-01-23T05:19:33.661Z,95365.13
2023-01-23T05:22:07.272Z,95372.88
2023-01-23T05:24:36.590Z,95367.44
2023-01-23T05:27:06.707Z,95372.25
2023-01-23T05:29:40.555Z,95371.47
2023-01-23T05:32:17.191Z,95377.94
2023-01-23T05:34:46.596Z,95386.22
2023-01-23T05:37:26.026Z,95390.31
2023-01-23T05:39:59.487Z,95395.41
2023-01-23T05:42:42.203Z,95396.63
2023-01-23T05:45:38.374Z,95390.72
2023-01-23T05:48:15.411Z,95395.81
2023-01-23T05:50:44.544Z,95402.50
2023-01-23T05:53:13.580Z,95405.94
2023-01-23T05:55:44.778Z,95403.72
2023-01-23T05:58:16.165Z,95403.94
2023-01-23T06:01:08.031Z,95402.94
2023-01-23T06:04:16.536Z,95411.06
2023-01-23T06:07:15.742Z,95412.28
2023-01-23T06:09:44.913Z,95417.34
2023-01-23T06:12:15.713Z,95420.19
2023-01-23T06:14:44.882Z,95424.66
2023-01-23T06:17:14.799Z,95428.47
2023-01-23T06:19:46.341Z,95435.59
2023-01-23T06:22:17.462Z,95436.63
2023-01-23T06:25:06.226Z,95438.88
2023-01-23T06:27:35.423Z,95440.91
2023-01-23T06:30:09.477Z,95443.72
2023-01-23T06:32:43.542Z,95435.03
2023-01-23T06:35:16.403Z,95451.03
2023-01-23T06:37:46.893Z,95443.72
2023-01-23T06:40:20.424Z,95446.56
2023-01-23T06:43:01.963Z,95456.28
2023-01-23T06:45:31.626Z,95442.91
2023-01-23T06:48:00.631Z,95441.88
2023-01-23T06:50:31.810Z,95455.06
2023-01-23T06:53:01.076Z,95464.19
2023-01-23T06:55:30.679Z,95454.91
2023-01-23T06:58:02.535Z,95468.47
2023-01-23T07:00:34.638Z,95482.88
2023-01-23T07:03:06.363Z,95470.91
2023-01-23T07:05:44.963Z,95483.06
2023-01-23T07:08:14.814Z,95480.59
2023-01-23T07:10:44.085Z,95479.38
2023-01-23T07:13:13.698Z,95478.81
2023-01-23T07:15:43.434Z,95483.88
2023-01-23T07:18:12.685Z,95487.31
2023-01-23T07:20:46.024Z,95489.38
2023-01-23T07:23:15.481Z,95486.91
2023-01-23T07:25:44.763Z,95506.81
2023-01-23T07:28:14.078Z,95503.34
2023-01-23T07:30:43.922Z,95514.53
2023-01-23T07:33:14.801Z,95510.28
2023-01-23T07:35:45.376Z,95512.72
2023-01-23T07:38:15.593Z,95513.09
2023-01-23T07:40:46.472Z,95509.44
2023-01-23T07:43:15.887Z,95516.97
2023-01-23T07:45:44.964Z,95525.09
2023-01-23T07:48:14.839Z,95522.84
2023-01-23T07:50:45.383Z,95512.91
2023-01-23T07:53:14.569Z,95511.50
2023-01-23T07:55:43.675Z,95520.00
2023-01-23T07:58:12.813Z,95524.84
2023-01-23T08:00:43.099Z,95530.56
2023-01-23T08:03:12.176Z,95538.25
2023-01-23T08:05:43.895Z,95543.53
2023-01-23T08:08:14.684Z,95540.28
2023-01-23T08:10:44.064Z,95544.13
2023-01-23T08:13:13.792Z,95541.31
2023-01-23T08:15:43.543Z,95544.53
2023-01-23T08:18:13.139Z,95552.44
2023-01-23T08:20:42.547Z,95540.47
2023-01-23T08:23:11.600Z,95550.00
2023-01-23T08:25:42.047Z,95566.63
2023-01-23T08:28:11.177Z,95558.91
2023-01-23T08:30:40.185Z,95555.69
2023-01-23T08:33:09.234Z,95568.28
2023-01-23T08:35:39.211Z,95554.88
2023-01-23T08:38:10.715Z,95563.97
2023-01-23T08:40:40.243Z,95562.56
2023-01-23T08:43:12.349Z,95566.22
2023-01-23T08:45:42.571Z,95573.31
2023-01-23T08:48:12.609Z,95568.84
2023-01-23T08:50:41.563Z,95578.13
2023-01-23T08:53:10.844Z,95578.56
2023-01-23T08:55:40.212Z,95562.97
2023-01-23T08:58:13.295Z,95573.28
2023-01-23T09:00:42.467Z,95574.50
2023-01-23T09:03:12.708Z,95582.00
2023-01-23T09:05:42.413Z,95581.59
2023-01-23T09:08:11.461Z,95571.88
2023-01-23T09:10:40.555Z,95573.28
2023-01-23T09:13:11.556Z,95567.81
2023-01-23T09:15:41.620Z,95553.06
2023-01-23T09:18:11.450Z,95569.06
2023-01-23T09:20:40.465Z,95571.06
2023-01-23T09:23:10.182Z,95571.09
2023-01-23T09:25:40.289Z,95570.47
2023-01-23T09:28:10.957Z,95563.97
2023-01-23T09:30:40.234Z,95580.41
2023-01-23T09:33:10.048Z,95586.09
2023-01-23T09:35:40.233Z,95584.06
2023-01-23T09:38:09.372Z,95583.06
2023-01-23T09:40:47.557Z,95585.09
2023-01-23T09:43:25.875Z,95573.94
2023-01-23T09:46:03.339Z,95569.88
2023-01-23T09:48:36.521Z,95563.81
2023-01-23T09:51:08.216Z,95578.59
2023-01-23T09:53:41.165Z,95570.31
2023-01-23T09:56:21.589Z,95576.59
2023-01-23T09:59:01.697Z,95570.09
2023-01-23T10:01:32.992Z,95584.28
2023-01-23T10:04:03.234Z,95588.75
2023-01-23T10:06:35.005Z,95571.94
2023-01-23T10:09:22.383Z,95582.03
2023-01-23T10:12:00.999Z,95577.19
2023-01-23T10:14:57.954Z,95582.47
2023-01-23T10:17:35.014Z,95590.38
2023-01-23T10:20:25.437Z,95597.06
2023-01-23T10:23:06.324Z,95583.69
2023-01-23T10:25:42.454Z,95580.84
2023-01-23T10:28:27.269Z,95592.00
2023-01-23T10:31:02.261Z,95585.50
2023-01-23T10:33:40.430Z,95598.50
2023-01-23T10:36:24.177Z,95592.19
2023-01-23T10:39:01.848Z,95594.03
2023-01-23T10:41:31.004Z,95592.00
2023-01-23T10:44:01.676Z,95581.66
2023-01-23T10:46:37.895Z,95578.19
2023-01-23T10:49:07.555Z,95576.16
2023-01-23T10:51:47.675Z,95578.41
2023-01-23T10:54:32.254Z,95577.59
2023-01-23T10:57:03.474Z,95582.47
2023-01-23T10:59:38.063Z,95578.41
2023-01-23T11:02:27.829Z,95574.75
2023-01-23T11:04:57.451Z,95572.31
2023-01-23T11:07:29.252Z,95567.66
2023-01-23T11:09:59.715Z,95567.44
2023-01-23T11:12:30.910Z,95559.94
2023-01-23T11:15:24.671Z,95556.91
2023-01-23T11:17:58.429Z,95556.91
2023-01-23T11:20:28.171Z,95557.72
2023-01-23T11:23:06.412Z,95570.06
2023-01-23T11:25:40.183Z,95564.22
2023-01-23T11:28:23.879Z,95559.94
2023-01-23T11:31:07.918Z,95564.63
2023-01-23T11:33:54.024Z,95570.91
2023-01-23T11:36:42.837Z,95574.97
2023-01-23T11:39:23.761Z,95563.59
2023-01-23T11:41:53.519Z,95562.97
2023-01-23T11:44:25.439Z,95555.69
2023-01-23T11:47:34.255Z,95562.19
2023-01-23T11:50:31.931Z,95570.31
2023-01-23T11:53:06.871Z,95563.41
2023-01-23T11:56:06.786Z,95567.47
2023-01-23T11:59:05.588Z,95567.03
2023-01-23T12:01:43.793Z,95551.22
2023-01-23T12:05:00.355Z,95564.19
2023-01-23T12:07:39.284Z,95563.59
2023-01-23T12:10:19.974Z,95555.06
2023-01-23T12:13:10.472Z,95559.34
2023-01-23T12:15:45.967Z,95557.50
2023-01-23T12:18:29.039Z,95550.84
2023-01-23T12:21:07.015Z,95552.25
2023-01-23T12:23:51.278Z,95557.53
2023-01-23T12:26:23.726Z,95545.56
2023-01-23T12:29:11.111Z,95563.19
2023-01-23T12:32:02.646Z,95555.06
2023-01-23T12:35:04.987Z,95560.34
2023-01-23T12:37:54.460Z,95567.06
2023-01-23T12:40:32.043Z,95571.31
2023-01-23T12:43:07.313Z,95560.97
2023-01-23T12:45:41.163Z,95580.81
2023-01-23T12:48:17.018Z,95583.25
2023-01-23T12:50:48.931Z,95567.00
2023-01-23T12:53:21.465Z,95563.38
2023-01-23T12:56:01.393Z,95564.41
2023-01-23T12:58:34.066Z,95558.72
2023-01-23T13:01:14.274Z,95548.78
2023-01-23T13:03:58.382Z,95540.47
2023-01-23T13:06:55.054Z,95554.44
2023-01-23T13:09:35.017Z,95569.44
2023-01-23T13:12:22.491Z,95561.94
2023-01-23T13:15:13.408Z,95564.19
2023-01-23T13:17:48.998Z,95567.78
2023-01-23T13:20:45.063Z,95565.78
2023-01-23T13:23:29.888Z,95569.44
2023-01-23T13:26:32.385Z,95574.88
2023-01-23T13:29:04.619Z,95574.25
2023-01-23T13:31:40.603Z,95573.84
2023-01-23T13:34:41.912Z,95572.44
2023-01-23T13:37:34.770Z,95567.59
2023-01-23T13:40:16.219Z,95564.97
2023-01-23T13:42:46.232Z,95551.78
2023-01-23T13:45:31.140Z,95573.44
2023-01-23T14:22:39.733Z,95588.28
2023-01-23T14:25:17.864Z,95590.09
2023-01-23T14:27:53.640Z,95598.16
2023-01-23T14:30:27.433Z,95599.19
2023-01-23T14:32:59.148Z,95604.72
2023-01-23T14:35:30.871Z,95613.41
2023-01-23T14:38:03.998Z,95609.56
2023-01-23T14:40:46.638Z,95614.00
2023-01-23T14:43:23.206Z,95622.28
2023-01-23T14:46:01.414Z,95613.19
2023-01-23T14:48:36.662Z,95621.53
2023-01-23T14:51:18.789Z,95620.91
2023-01-23T14:54:00.004Z,95621.91
2023-01-23T14:56:34.952Z,95615.44
2023-01-23T14:59:09.620Z,95628.22
2023-01-23T15:01:39.474Z,95625.97
2023-01-23T15:04:21.519Z,95633.91
2023-01-23T15:06:54.874Z,95625.97
2023-01-23T15:09:31.141Z,95629.22
2023-01-23T15:12:07.202Z,95639.53
2023-01-23T15:14:39.264Z,95644.41
2023-01-23T15:17:16.871Z,95635.66
2023-01-23T15:19:51.226Z,95639.66
2023-01-23T15:22:23.099Z,95630.56
2023-01-23T15:24:53.729Z,95635.78
2023-01-23T15:27:32.162Z,95648.81
2023-01-23T15:30:32.849Z,95643.09
2023-01-23T15:33:07.471Z,95655.47
2023-01-23T15:35:37.702Z,95659.34
2023-01-23T15:38:09.639Z,95657.47
2023-01-23T15:40:42.429Z,95656.84
2023-01-23T15:43:13.839Z,95666.19
2023-01-23T15:45:43.035Z,95674.06
2023-01-23T15:48:12.197Z,95671.03
2023-01-23T15:50:41.449Z,95667.38
2023-01-23T15:53:15.825Z,95673.06
2023-01-23T15:55:47.551Z,95665.13
2023-01-23T15:58:16.707Z,95670.44
2023-01-23T16:00:45.965Z,95673.88
2023-01-23T16:03:15.262Z,95683.34
2023-01-23T16:05:45.062Z,95684.34
2023-01-23T16:08:21.631Z,95687.19
2023-01-23T16:10:52.587Z,95688.63
2023-01-23T16:13:21.823Z,95686.59
2023-01-23T16:15:51.146Z,95690.00
2023-01-23T16:18:20.661Z,95692.50
2023-01-23T16:20:49.800Z,95687.25
2023-01-23T16:23:22.703Z,95703.44
2023-01-23T16:25:53.409Z,95692.06
2023-01-23T16:28:26.139Z,95690.41
2023-01-23T16:30:55.501Z,95698.09
2023-01-23T16:33:24.856Z,95701.25
2023-01-23T16:35:53.975Z,95693.63
2023-01-23T16:38:25.748Z,95702.13
2023-01-23T16:40:57.426Z,95697.44
2023-01-23T16:43:28.830Z,95698.69
2023-01-23T16:45:58.079Z,95712.19
2023-01-23T16:48:28.747Z,95709.94
2023-01-23T16:51:01.794Z,95707.13
2023-01-23T16:53:34.213Z,95720.22
2023-01-23T16:56:07.268Z,95708.03
2023-01-23T16:58:41.112Z,95709.13
2023-01-23T17:01:16.565Z,95714.41
2023-01-23T17:03:46.592Z,95710.75
2023-01-23T17:06:17.111Z,95708.94
2023-01-23T17:08:48.079Z,95710.13
2023-01-23T17:11:22.829Z,95715.03
2023-01-23T17:13:58.098Z,95715.22
2023-01-23T17:16:28.417Z,95725.84
2023-01-23T17:19:01.047Z,95718.91
2023-01-23T17:21:34.720Z,95720.47
2023-01-23T17:24:03.893Z,95723.28
2023-01-23T17:26:34.601Z,95724.72
2023-01-23T17:29:04.601Z,95731.00
2023-01-23T17:31:34.583Z,95727.94
2023-01-23T17:34:04.721Z,95729.75
2023-01-23T17:36:33.875Z,95728.81
2023-01-23T17:39:03.697Z,95732.06
2023-01-23T17:41:34.174Z,95731.34
2023-01-23T17:44:03.452Z,95730.38
2023-01-23T17:46:37.039Z,95728.53
2023-01-23T17:49:13.830Z,95730.75
2023-01-23T17:51:43.010Z,95744.94
2023-01-23T17:54:21.051Z,95743.25
2023-01-23T17:56:51.907Z,95740.25
2023-01-23T17:59:21.066Z,95746.88
2023-01-23T18:01:50.270Z,95744.06
2023-01-23T18:04:20.921Z,95747.69
2023-01-23T18:06:50.292Z,95747.69
2023-01-23T18:09:21.362Z,95744.50
2023-01-23T18:11:55.347Z,95751.66
2023-01-23T18:14:43.921Z,95752.91
2023-01-23T18:17:26.082Z,95754.09
2023-01-23T18:19:56.561Z,95757.38
2023-01-23T18:22:27.055Z,95754.06
2023-01-23T18:24:56.666Z,95755.47
2023-01-23T18:27:29.762Z,95760.81
2023-01-23T18:30:04.239Z,95763.94
2023-01-23T18:32:58.328Z,95754.06
2023-01-23T18:35:38.767Z,95751.84
2023-01-23T18:38:14.143Z,95761.63
2023-01-23T18:40:55.833Z,95761.78
2023-01-23T18:43:38.816Z,95767.44
2023-01-23T18:46:13.444Z,95759.00
2023-01-23T18:48:43.435Z,95769.44
2023-01-23T18:51:28.552Z,95771.06
2023-01-23T18:54:07.432Z,95767.53
2023-01-23T18:56:49.215Z,95773.22
2023-01-23T18:59:25.631Z,95774.97
2023-01-23T19:01:57.095Z,95773.59
2023-01-23T19:04:34.737Z,95769.09
2023-01-23T19:07:05.759Z,95774.53
2023-01-23T19:09:39.154Z,95775.81
2023-01-23T19:12:25.279Z,95771.72
2023-01-23T19:15:21.375Z,95768.72
2023-01-23T19:17:57.641Z,95767.22
2023-01-23T19:20:33.226Z,95773.53
2023-01-23T19:23:17.513Z,95773.34
2023-01-23T19:25:48.417Z,95769.97
2023-01-23T19:28:18.165Z,95775.72
2023-01-23T19:30:49.417Z,95775.53
2023-01-23T19:33:20.193Z,95780.56
2023-01-23T19:35:51.618Z,95776.94
2023-01-23T19:38:22.600Z,95776.53
2023-01-23T19:40:52.656Z,95784.56
2023-01-23T19:43:21.939Z,95781.06
2023-01-23T19:45:52.660Z,95774.59
2023-01-23T19:48:21.810Z,95779.94
2023-01-23T19:50:51.586Z,95775.78
2023-01-23T19:53:20.630Z,95790.44
2023-01-23T19:55:49.740Z,95793.19
2023-01-23T19:58:18.801Z,95788.53
2023-01-23T20:00:48.009Z,95790.81
2023-01-23T20:03:19.191Z,95790.03
2023-01-23T20:05:48.351Z,95784.19
2023-01-23T20:08:18.255Z,95794.94
2023-01-23T20:10:47.333Z,95802.19
2023-01-23T20:13:16.400Z,95801.66
2023-01-23T20:15:46.040Z,95802.03
2023-01-23T20:18:15.276Z,95801.00
2023-01-23T20:20:45.971Z,95802.47
2023-01-23T20:23:15.370Z,95805.28
2023-01-23T20:25:44.415Z,95801.59
2023-01-23T20:28:13.672Z,95811.47
2023-01-23T20:30:42.714Z,95811.53
2023-01-23T20:33:11.858Z,95815.44
2023-01-23T20:35:41.540Z,95813.63
2023-01-23T20:38:12.033Z,95817.44
2023-01-23T20:40:41.245Z,95810.72
2023-01-23T20:43:10.468Z,95818.63
2023-01-23T20:45:47.262Z,95825.22
2023-01-23T20:48:17.214Z,95835.66
2023-01-23T20:50:46.790Z,95834.66
2023-01-23T20:53:31.555Z,95840.81
2023-01-23T20:56:03.917Z,95832.47
2023-01-23T20:58:50.753Z,95834.03
2023-01-23T21:01:21.600Z,95829.22
2023-01-23T21:03:51.747Z,95831.03
2023-01-23T21:06:21.875Z,95829.78
2023-01-23T21:08:53.542Z,95827.22
2023-01-23T21:11:24.226Z,95827.22
2023-01-23T21:13:54.854Z,95833.47
2023-01-23T21:16:24.112Z,95842.75
2023-01-23T21:18:54.725Z,95842.63
2023-01-23T21:21:25.467Z,95841.25
2023-01-23T21:23:56.194Z,95841.91
2023-01-23T21:26:27.767Z,95844.09
2023-01-23T21:28:58.762Z,95838.84
2023-01-23T21:31:29.736Z,95843.28
2023-01-23T21:34:02.978Z,95848.19
2023-01-23T21:36:31.703Z,95839.56
2023-01-23T21:39:02.122Z,95826.34
2023-01-23T21:41:31.256Z,95833.25
2023-01-23T21:44:00.511Z,95826.00
2023-01-23T21:46:29.463Z,95830.50
2023-01-23T21:48:58.505Z,95834.41
2023-01-23T21:51:27.993Z,95837.56
2023-01-23T21:53:57.315Z,95835.16
2023-01-23T21:56:28.537Z,95837.97
2023-01-23T21:58:59.075Z,95834.69
2023-01-23T22:01:34.009Z,95838.13
2023-01-23T22:04:05.008Z,95830.59
2023-01-23T22:06:36.330Z,95830.50
2023-01-23T22:09:06.425Z,95830.59
2023-01-23T22:11:37.217Z,95824.81
2023-01-23T22:14:06.479Z,95826.28
2023-01-23T22:16:47.887Z,95818.41
2023-01-23T22:19:21.051Z,95801.34
2023-01-23T22:21:51.714Z,95794.88
2023-01-23T22:24:20.867Z,95802.06
2023-01-23T22:26:53.533Z,95807.78
2023-01-23T22:29:24.824Z,95815.94
2023-01-23T22:31:53.952Z,95808.34
2023-01-23T22:34:23.016Z,95807.16
2023-01-23T22:36:52.266Z,95813.13
2023-01-23T22:39:21.331Z,95814.31
2023-01-23T22:41:52.007Z,95830.00
2023-01-23T22:44:21.028Z,95824.91
2023-01-23T22:46:52.137Z,95819.66
2023-01-23T22:49:21.829Z,95822.81
2023-01-23T22:51:51.714Z,95820.94
2023-01-23T22:54:21.672Z,95816.31
2023-01-23T22:56:52.071Z,95810.97
2023-01-23T22:59:21.783Z,95811.78
2023-01-23T23:01:51.382Z,95811.69
2023-01-23T23:04:20.484Z,95806.06
2023-01-23T23:06:50.170Z,95808.16
2023-01-23T23:09:20.005Z,95825.91
2023-01-23T23:11:51.926Z,95823.91
2023-01-23T23:14:23.093Z,95828.00
2023-01-23T23:16:52.102Z,95824.19
2023-01-23T23:19:25.122Z,95830.25
2023-01-23T23:21:54.541Z,95820.47
2023-01-23T23:24:23.697Z,95810.94
2023-01-23T23:26:53.521Z,95817.47
2023-01-23T23:29:24.114Z,95816.00
2023-01-23T23:31:53.749Z,95819.56
2023-01-23T23:34:22.803Z,95820.66
2023-01-23T23:36:51.877Z,95826.34
2023-01-23T23:39:21.832Z,95829.50
2023-01-23T23:41:51.345Z,95822.00
2023-01-23T23:44:21.614Z,95825.34
2023-01-23T23:46:52.286Z,95832.75
2023-01-23T23:49:26.630Z,95817.47
2023-01-23T23:51:55.714Z,95822.47
2023-01-23T23:54:24.783Z,95832.94
2023-01-23T23:56:54.702Z,95822.19
2023-01-23T23:59:23.819Z,95825.53
